createdAt,value
2022-08-31T00:00:17.043Z,3.90
2022-08-31T00:01:16.651Z,3.80
2022-08-31T00:02:16.715Z,3.90
2022-08-31T00:03:16.939Z,3.70
2022-08-31T00:04:16.662Z,4.10
2022-08-31T00:05:16.622Z,3.90
2022-08-31T00:06:16.623Z,3.90
2022-08-31T00:07:16.605Z,3.80
2022-08-31T00:08:16.593Z,3.80
2022-08-31T00:09:16.610Z,4.20
2022-08-31T00:10:16.595Z,3.90
2022-08-31T00:11:16.580Z,3.90
2022-08-31T00:12:16.932Z,3.80
2022-08-31T00:13:17.977Z,4.00
2022-08-31T00:14:16.623Z,3.80
2022-08-31T00:15:16.683Z,4.10
2022-08-31T00:16:16.592Z,4.10
2022-08-31T00:17:16.752Z,3.90
2022-08-31T00:18:16.540Z,4.00
2022-08-31T00:19:16.568Z,4.00
2022-08-31T00:20:23.352Z,4.00
2022-08-31T00:21:16.891Z,3.60
2022-08-31T00:22:17.011Z,3.90
2022-08-31T00:23:16.862Z,3.90
2022-08-31T00:24:16.691Z,3.90
2022-08-31T00:25:16.481Z,3.80
2022-08-31T00:26:16.473Z,3.70
2022-08-31T00:27:16.483Z,4.10
2022-08-31T00:28:16.660Z,4.30
2022-08-31T00:29:17.330Z,3.70
2022-08-31T00:30:16.440Z,3.80
2022-08-31T00:31:16.495Z,4.00
2022-08-31T00:32:16.478Z,3.80
2022-08-31T00:33:16.534Z,3.90
2022-08-31T00:34:16.481Z,3.80
2022-08-31T00:35:16.424Z,4.00
2022-08-31T00:36:16.399Z,4.00
2022-08-31T00:37:16.425Z,4.30
2022-08-31T00:38:17.338Z,4.10
2022-08-31T00:39:16.471Z,4.00
2022-08-31T00:40:16.413Z,4.10
2022-08-31T00:41:16.389Z,4.00
2022-08-31T00:42:16.500Z,4.10
2022-08-31T00:43:16.764Z,4.10
2022-08-31T00:44:16.591Z,4.00
2022-08-31T00:45:16.366Z,4.20
2022-08-31T00:46:16.414Z,4.20
2022-08-31T00:47:16.778Z,4.20
2022-08-31T00:48:16.839Z,4.40
2022-08-31T00:49:16.886Z,4.50
2022-08-31T00:50:16.327Z,4.30
2022-08-31T00:51:18.815Z,4.10
2022-08-31T00:52:16.303Z,4.30
2022-08-31T00:53:16.481Z,4.20
2022-08-31T00:54:16.297Z,4.60
2022-08-31T00:55:16.287Z,4.20
2022-08-31T00:56:16.256Z,4.30
2022-08-31T00:57:16.266Z,4.30
2022-08-31T00:58:16.252Z,4.00
2022-08-31T00:59:16.256Z,4.10
2022-08-31T01:00:16.257Z,4.50
2022-08-31T01:01:16.285Z,4.60
2022-08-31T01:02:16.677Z,4.20
2022-08-31T01:03:16.637Z,4.10
2022-08-31T01:04:16.989Z,4.00
2022-08-31T01:05:17.060Z,4.10
2022-08-31T01:06:16.615Z,4.00
2022-08-31T01:07:16.194Z,4.20
2022-08-31T01:08:16.185Z,4.50
2022-08-31T01:09:16.206Z,4.30
2022-08-31T01:10:16.175Z,4.10
2022-08-31T01:11:16.166Z,3.90
2022-08-31T01:12:16.155Z,4.20
2022-08-31T01:13:16.193Z,4.20
2022-08-31T01:14:16.155Z,4.40
2022-08-31T01:15:16.134Z,3.90
2022-08-31T01:16:16.173Z,4.30
2022-08-31T01:17:16.126Z,4.60
2022-08-31T01:18:16.115Z,4.30
2022-08-31T01:19:16.607Z,4.10
2022-08-31T01:20:17.143Z,4.40
2022-08-31T01:21:16.093Z,3.90
2022-08-31T01:22:16.091Z,4.00
2022-08-31T01:23:16.235Z,4.00
2022-08-31T01:24:17.013Z,4.10
2022-08-31T01:25:16.922Z,4.00
2022-08-31T01:26:16.062Z,4.20
2022-08-31T01:27:16.102Z,4.20
2022-08-31T01:28:16.043Z,4.10
2022-08-31T01:29:17.364Z,3.90
2022-08-31T01:30:16.067Z,4.30
2022-08-31T01:31:16.082Z,4.20
2022-08-31T01:32:16.024Z,4.30
2022-08-31T01:33:16.022Z,4.00
2022-08-31T01:34:16.058Z,4.10
2022-08-31T01:35:16.001Z,4.10
2022-08-31T01:36:16.389Z,4.00
2022-08-31T01:37:15.990Z,4.00
2022-08-31T01:38:16.001Z,4.20
2022-08-31T01:39:16.001Z,3.90
2022-08-31T01:40:16.132Z,4.00
2022-08-31T01:41:15.962Z,3.60
2022-08-31T01:42:15.951Z,4.20
2022-08-31T01:43:17.059Z,3.90
2022-08-31T01:44:15.930Z,3.60
2022-08-31T01:45:15.940Z,3.50
2022-08-31T01:46:15.978Z,3.20
2022-08-31T01:47:16.799Z,3.40
2022-08-31T01:48:15.919Z,3.30
2022-08-31T01:49:15.906Z,3.40
2022-08-31T01:50:16.238Z,3.40
2022-08-31T01:51:15.900Z,3.60
2022-08-31T01:52:15.980Z,3.50
2022-08-31T01:53:15.907Z,3.30
2022-08-31T01:54:15.899Z,3.20
2022-08-31T01:55:15.898Z,3.20
2022-08-31T01:56:15.850Z,3.10
2022-08-31T01:57:16.156Z,3.30
2022-08-31T01:58:15.838Z,3.10
2022-08-31T01:59:15.977Z,3.30
2022-08-31T02:00:16.298Z,3.30
2022-08-31T02:01:31.187Z,3.20
2022-08-31T02:02:15.907Z,3.10
2022-08-31T02:03:16.057Z,3.40
2022-08-31T02:04:15.818Z,3.40
2022-08-31T02:05:15.801Z,3.30
2022-08-31T02:06:15.798Z,3.20
2022-08-31T02:07:15.788Z,3.10
2022-08-31T02:08:15.846Z,3.40
2022-08-31T02:09:16.098Z,3.00
2022-08-31T02:10:15.767Z,3.10
2022-08-31T02:11:15.755Z,3.30
2022-08-31T02:12:15.846Z,3.20
2022-08-31T02:13:15.787Z,3.30
2022-08-31T02:14:15.947Z,3.30
2022-08-31T02:15:15.727Z,3.40
2022-08-31T02:16:15.931Z,3.20
2022-08-31T02:17:15.975Z,3.20
2022-08-31T02:18:16.006Z,3.20
2022-08-31T02:19:16.095Z,3.20
2022-08-31T02:20:15.873Z,2.90
2022-08-31T02:21:15.684Z,3.20
2022-08-31T02:22:15.675Z,3.20
2022-08-31T02:23:15.676Z,3.20
2022-08-31T02:24:15.763Z,3.00
2022-08-31T02:25:15.665Z,3.00
2022-08-31T02:26:15.645Z,3.00
2022-08-31T02:27:16.252Z,3.10
2022-08-31T02:28:15.648Z,3.30
2022-08-31T02:29:15.645Z,3.10
2022-08-31T02:30:15.615Z,3.20
2022-08-31T02:31:15.684Z,3.00
2022-08-31T02:32:15.604Z,3.10
2022-08-31T02:33:15.604Z,3.00
2022-08-31T02:34:15.624Z,3.10
2022-08-31T02:35:15.594Z,3.00
2022-08-31T02:36:16.505Z,3.20
2022-08-31T02:37:15.599Z,3.30
2022-08-31T02:38:15.923Z,3.00
2022-08-31T02:39:15.633Z,3.30
2022-08-31T02:40:15.637Z,3.10
2022-08-31T02:41:15.628Z,3.00
2022-08-31T02:42:15.542Z,3.00
2022-08-31T02:43:16.492Z,2.90
2022-08-31T02:44:15.743Z,2.90
2022-08-31T02:45:15.527Z,3.50
2022-08-31T02:46:15.875Z,3.20
2022-08-31T02:47:15.863Z,3.00
2022-08-31T02:48:15.733Z,3.20
2022-08-31T02:49:15.952Z,3.20
2022-08-31T02:50:15.992Z,3.10
2022-08-31T02:51:15.485Z,3.10
2022-08-31T02:52:15.479Z,3.30
2022-08-31T02:53:15.914Z,3.20
2022-08-31T02:54:15.500Z,3.40
2022-08-31T02:55:15.591Z,3.20
2022-08-31T02:56:15.488Z,3.00
2022-08-31T02:57:15.442Z,3.20
2022-08-31T02:58:15.431Z,3.00
2022-08-31T02:59:16.141Z,2.90
2022-08-31T03:00:16.248Z,3.50
2022-08-31T03:01:16.467Z,2.90
2022-08-31T03:02:15.475Z,3.00
2022-08-31T03:03:15.406Z,3.20
2022-08-31T03:04:15.401Z,3.10
2022-08-31T03:05:15.380Z,2.90
2022-08-31T03:06:15.379Z,3.10
2022-08-31T03:07:15.375Z,2.90
2022-08-31T03:08:15.361Z,2.90
2022-08-31T03:09:15.379Z,2.90
2022-08-31T03:10:15.349Z,3.10
2022-08-31T03:11:15.339Z,2.80
2022-08-31T03:12:16.010Z,2.70
2022-08-31T03:13:16.048Z,2.80
2022-08-31T03:14:15.917Z,3.10
2022-08-31T03:15:16.150Z,3.30
2022-08-31T03:16:16.262Z,2.90
2022-08-31T03:17:15.301Z,3.10
2022-08-31T03:18:15.299Z,2.80
2022-08-31T03:19:15.418Z,2.80
2022-08-31T03:20:15.286Z,2.80
2022-08-31T03:21:15.309Z,3.10
2022-08-31T03:22:15.568Z,2.90
2022-08-31T03:23:15.607Z,3.00
2022-08-31T03:24:15.665Z,2.90
2022-08-31T03:25:15.249Z,3.00
2022-08-31T03:26:15.247Z,2.90
2022-08-31T03:27:15.337Z,3.10
2022-08-31T03:28:15.849Z,2.90
2022-08-31T03:29:15.537Z,2.80
2022-08-31T03:30:15.215Z,2.80
2022-08-31T03:31:16.089Z,3.00
2022-08-31T03:32:15.735Z,3.00
2022-08-31T03:33:16.136Z,2.90
2022-08-31T03:34:16.230Z,2.90
2022-08-31T03:35:15.766Z,2.70
2022-08-31T03:36:15.198Z,3.80
2022-08-31T03:37:16.024Z,3.00
2022-08-31T03:38:15.416Z,3.10
2022-08-31T03:39:15.195Z,3.30
2022-08-31T03:40:15.192Z,3.00
2022-08-31T03:41:15.144Z,2.90
2022-08-31T03:42:15.425Z,2.80
2022-08-31T03:43:15.417Z,2.80
2022-08-31T03:44:16.115Z,2.80
2022-08-31T03:45:15.105Z,2.70
2022-08-31T03:46:15.313Z,3.00
2022-08-31T03:47:15.902Z,2.70
2022-08-31T03:48:15.992Z,2.80
2022-08-31T03:49:15.295Z,2.80
2022-08-31T03:50:15.074Z,2.80
2022-08-31T03:51:15.066Z,2.80
2022-08-31T03:52:15.104Z,2.80
2022-08-31T03:53:19.166Z,3.10
2022-08-31T03:54:15.079Z,3.10
2022-08-31T03:55:15.045Z,3.10
2022-08-31T03:56:15.037Z,3.10
2022-08-31T03:57:15.033Z,3.20
2022-08-31T03:58:15.300Z,3.00
2022-08-31T03:59:15.134Z,2.90
2022-08-31T04:00:15.400Z,3.10
2022-08-31T04:01:15.089Z,3.10
2022-08-31T04:02:15.221Z,3.10
2022-08-31T04:03:15.429Z,3.30
2022-08-31T04:04:14.994Z,3.30
2022-08-31T04:05:15.013Z,3.80
2022-08-31T04:06:14.972Z,3.50
2022-08-31T04:07:14.982Z,3.80
2022-08-31T04:08:15.784Z,3.10
2022-08-31T04:09:15.017Z,3.30
2022-08-31T04:10:14.944Z,3.30
2022-08-31T04:11:14.942Z,3.50
2022-08-31T04:12:15.031Z,3.70
2022-08-31T04:13:15.900Z,3.60
2022-08-31T04:14:15.702Z,3.50
2022-08-31T04:15:15.041Z,3.60
2022-08-31T04:16:15.122Z,3.50
2022-08-31T04:17:14.942Z,3.50
2022-08-31T04:18:15.012Z,3.70
2022-08-31T04:19:14.972Z,3.80
2022-08-31T04:20:15.021Z,3.60
2022-08-31T04:21:14.968Z,3.80
2022-08-31T04:22:15.622Z,3.50
2022-08-31T04:23:14.942Z,3.50
2022-08-31T04:24:14.921Z,3.40
2022-08-31T04:25:14.949Z,3.40
2022-08-31T04:26:14.931Z,3.50
2022-08-31T04:27:14.939Z,3.80
2022-08-31T04:28:14.929Z,3.30
2022-08-31T04:29:15.650Z,3.80
2022-08-31T04:30:14.990Z,3.30
2022-08-31T04:31:14.915Z,3.60
2022-08-31T04:32:14.962Z,3.80
2022-08-31T04:33:14.979Z,3.80
2022-08-31T04:34:15.059Z,3.40
2022-08-31T04:35:14.820Z,3.60
2022-08-31T04:36:14.769Z,3.10
2022-08-31T04:37:14.773Z,3.40
2022-08-31T04:38:14.750Z,3.50
2022-08-31T04:39:14.749Z,3.40
2022-08-31T04:40:15.275Z,3.30
2022-08-31T04:41:14.770Z,3.60
2022-08-31T04:42:14.724Z,3.20
2022-08-31T04:43:14.816Z,3.50
2022-08-31T04:44:19.685Z,3.70
2022-08-31T04:45:14.728Z,3.30
2022-08-31T04:46:14.720Z,3.60
2022-08-31T04:47:14.707Z,3.50
2022-08-31T04:48:14.987Z,3.20
2022-08-31T04:49:15.249Z,3.50
2022-08-31T04:50:14.703Z,3.40
2022-08-31T04:51:14.666Z,3.60
2022-08-31T04:52:14.657Z,3.80
2022-08-31T04:53:14.898Z,3.40
2022-08-31T04:54:14.817Z,3.50
2022-08-31T04:55:14.766Z,3.80
2022-08-31T04:56:14.643Z,3.60
2022-08-31T04:57:14.637Z,3.60
2022-08-31T04:58:15.684Z,3.60
2022-08-31T04:59:15.576Z,3.90
2022-08-31T05:00:14.621Z,3.50
2022-08-31T05:01:14.661Z,3.70
2022-08-31T05:02:14.742Z,3.50
2022-08-31T05:03:14.926Z,3.40
2022-08-31T05:04:15.605Z,3.50
2022-08-31T05:05:14.685Z,3.40
2022-08-31T05:06:14.572Z,3.30
2022-08-31T05:07:14.555Z,3.70
2022-08-31T05:08:14.705Z,3.50
2022-08-31T05:09:14.547Z,3.50
2022-08-31T05:10:14.565Z,3.40
2022-08-31T05:11:14.533Z,3.50
2022-08-31T05:12:14.903Z,3.50
2022-08-31T05:13:14.697Z,3.40
2022-08-31T05:14:15.004Z,3.60
2022-08-31T05:15:14.531Z,3.60
2022-08-31T05:16:14.690Z,3.30
2022-08-31T05:17:14.733Z,3.60
2022-08-31T05:18:15.204Z,3.40
2022-08-31T05:19:15.255Z,3.40
2022-08-31T05:20:14.785Z,3.50
2022-08-31T05:21:14.464Z,3.60
2022-08-31T05:22:14.455Z,3.60
2022-08-31T05:23:15.023Z,3.20
2022-08-31T05:24:14.534Z,3.30
2022-08-31T05:25:14.452Z,3.50
2022-08-31T05:26:14.423Z,3.40
2022-08-31T05:27:14.803Z,3.30
2022-08-31T05:28:15.351Z,3.20
2022-08-31T05:29:14.462Z,4.10
2022-08-31T05:30:14.433Z,3.60
2022-08-31T05:31:14.421Z,3.30
2022-08-31T05:32:14.384Z,3.50
2022-08-31T05:33:14.684Z,3.50
2022-08-31T05:34:14.731Z,3.30
2022-08-31T05:35:14.381Z,3.20
2022-08-31T05:36:14.358Z,3.50
2022-08-31T05:37:14.798Z,3.50
2022-08-31T05:38:14.383Z,3.20
2022-08-31T05:39:14.390Z,3.60
2022-08-31T05:40:14.458Z,3.40
2022-08-31T05:41:14.332Z,3.30
2022-08-31T05:42:14.313Z,3.20
2022-08-31T05:43:14.481Z,3.20
2022-08-31T05:44:14.463Z,3.00
2022-08-31T05:45:14.402Z,3.20
2022-08-31T05:46:14.335Z,3.30
2022-08-31T05:47:14.289Z,3.00
2022-08-31T05:48:14.279Z,3.10
2022-08-31T05:49:14.272Z,3.20
2022-08-31T05:50:14.277Z,3.20
2022-08-31T05:51:14.270Z,3.50
2022-08-31T05:52:14.258Z,3.20
2022-08-31T05:53:14.293Z,3.60
2022-08-31T05:54:14.989Z,3.20
2022-08-31T05:55:14.290Z,3.20
2022-08-31T05:56:14.234Z,3.40
2022-08-31T05:57:14.227Z,3.30
2022-08-31T05:58:14.849Z,3.30
2022-08-31T05:59:14.209Z,3.50
2022-08-31T06:00:14.367Z,3.60
2022-08-31T06:01:14.203Z,3.30
2022-08-31T06:02:14.493Z,3.20
2022-08-31T06:03:14.201Z,3.40
2022-08-31T06:04:14.809Z,3.10
2022-08-31T06:05:14.230Z,3.40
2022-08-31T06:06:14.189Z,3.30
2022-08-31T06:07:14.755Z,3.60
2022-08-31T06:08:15.422Z,3.30
2022-08-31T06:09:15.006Z,3.30
2022-08-31T06:10:14.638Z,3.00
2022-08-31T06:11:14.137Z,3.30
2022-08-31T06:12:14.108Z,3.40
2022-08-31T06:13:14.148Z,3.30
2022-08-31T06:14:14.143Z,3.60
2022-08-31T06:15:14.196Z,3.20
2022-08-31T06:16:14.177Z,3.50
2022-08-31T06:17:14.086Z,3.40
2022-08-31T06:18:14.076Z,3.70
2022-08-31T06:19:15.225Z,3.50
2022-08-31T06:20:17.586Z,3.30
2022-08-31T06:21:14.166Z,3.70
2022-08-31T06:22:14.056Z,3.60
2022-08-31T06:23:14.304Z,3.50
2022-08-31T06:24:14.197Z,3.60
2022-08-31T06:25:14.026Z,3.40
2022-08-31T06:26:14.026Z,3.40
2022-08-31T06:27:14.025Z,3.30
2022-08-31T06:28:14.145Z,3.70
2022-08-31T06:29:14.705Z,3.70
2022-08-31T06:30:13.987Z,3.40
2022-08-31T06:31:14.050Z,3.20
2022-08-31T06:32:13.972Z,3.30
2022-08-31T06:33:14.163Z,3.40
2022-08-31T06:34:14.525Z,3.20
2022-08-31T06:35:13.986Z,3.50
2022-08-31T06:36:14.409Z,3.40
2022-08-31T06:37:18.655Z,3.40
2022-08-31T06:38:14.153Z,3.30
2022-08-31T06:39:14.084Z,3.40
2022-08-31T06:40:14.089Z,3.30
2022-08-31T06:41:13.955Z,3.30
2022-08-31T06:42:14.105Z,3.30
2022-08-31T06:43:14.118Z,3.30
2022-08-31T06:44:14.037Z,3.00
2022-08-31T06:45:14.174Z,3.40
2022-08-31T06:46:14.075Z,3.10
2022-08-31T06:47:13.984Z,3.30
2022-08-31T06:48:14.285Z,3.30
2022-08-31T06:49:14.457Z,3.50
2022-08-31T06:50:14.206Z,3.60
2022-08-31T06:51:13.960Z,3.30
2022-08-31T06:52:13.873Z,3.40
2022-08-31T06:53:14.005Z,3.40
2022-08-31T06:54:28.929Z,3.00
2022-08-31T06:55:15.646Z,3.30
2022-08-31T06:56:21.455Z,3.30
2022-08-31T06:57:13.913Z,3.10
2022-08-31T06:58:21.501Z,3.50
2022-08-31T06:59:14.203Z,3.50
2022-08-31T07:00:13.822Z,3.40
2022-08-31T07:01:13.892Z,3.20
2022-08-31T07:02:24.670Z,3.10
2022-08-31T07:03:18.023Z,3.20
2022-08-31T07:04:19.695Z,3.30
2022-08-31T07:05:20.198Z,3.50
2022-08-31T07:06:15.513Z,3.30
2022-08-31T07:07:13.810Z,3.40
2022-08-31T07:08:13.824Z,3.20
2022-08-31T07:09:14.953Z,3.50
2022-08-31T07:10:13.891Z,3.20
2022-08-31T07:11:14.333Z,3.10
2022-08-31T07:12:13.981Z,3.40
2022-08-31T07:13:13.795Z,3.20
2022-08-31T07:14:14.542Z,3.20
2022-08-31T07:15:23.596Z,3.20
2022-08-31T07:16:13.967Z,3.10
2022-08-31T07:17:13.875Z,3.20
2022-08-31T07:18:13.942Z,3.10
2022-08-31T07:19:14.001Z,3.30
2022-08-31T07:20:13.733Z,3.30
2022-08-31T07:21:13.753Z,3.20
2022-08-31T07:22:15.609Z,3.10
2022-08-31T07:23:13.664Z,3.20
2022-08-31T07:24:13.622Z,3.10
2022-08-31T07:25:13.620Z,2.90
2022-08-31T07:26:13.773Z,3.10
2022-08-31T07:27:13.663Z,3.30
2022-08-31T07:28:13.627Z,3.00
2022-08-31T07:29:13.610Z,3.10
2022-08-31T07:30:13.630Z,3.00
2022-08-31T07:31:13.653Z,3.20
2022-08-31T07:32:13.671Z,3.10
2022-08-31T07:33:13.875Z,2.80
2022-08-31T07:34:13.636Z,3.10
2022-08-31T07:35:13.561Z,2.90
2022-08-31T07:36:13.854Z,2.80
2022-08-31T07:37:13.922Z,2.80
2022-08-31T07:38:13.608Z,3.00
2022-08-31T07:39:13.761Z,2.90
2022-08-31T07:40:14.063Z,3.10
2022-08-31T07:41:13.500Z,3.00
2022-08-31T07:42:13.518Z,2.80
2022-08-31T07:43:14.030Z,3.10
2022-08-31T07:44:14.340Z,3.20
2022-08-31T07:45:14.210Z,3.20
2022-08-31T07:46:13.512Z,3.00
2022-08-31T07:47:13.490Z,3.10
2022-08-31T07:48:14.041Z,3.00
2022-08-31T07:49:13.451Z,3.20
2022-08-31T07:50:13.451Z,2.90
2022-08-31T07:51:15.254Z,3.20
2022-08-31T07:52:13.444Z,3.10
2022-08-31T07:53:13.452Z,2.90
2022-08-31T07:54:14.080Z,3.10
2022-08-31T07:55:13.460Z,3.30
2022-08-31T07:56:13.400Z,2.80
2022-08-31T07:57:13.399Z,3.00
2022-08-31T07:58:14.269Z,3.00
2022-08-31T07:59:13.900Z,3.10
2022-08-31T08:00:13.369Z,3.00
2022-08-31T08:01:13.361Z,2.90
2022-08-31T08:02:17.213Z,3.30
2022-08-31T08:03:13.644Z,3.10
2022-08-31T08:04:14.199Z,3.10
2022-08-31T08:05:13.429Z,3.30
2022-08-31T08:06:13.340Z,3.00
2022-08-31T08:07:13.448Z,3.10
2022-08-31T08:08:13.834Z,3.00
2022-08-31T08:09:23.938Z,2.90
2022-08-31T08:10:13.469Z,3.10
2022-08-31T08:11:13.330Z,3.10
2022-08-31T08:12:13.690Z,2.80
2022-08-31T08:13:13.381Z,2.90
2022-08-31T08:14:13.702Z,3.00
2022-08-31T08:15:13.708Z,2.90
2022-08-31T08:16:13.336Z,2.90
2022-08-31T08:17:13.287Z,2.80
2022-08-31T08:18:13.519Z,2.80
2022-08-31T08:19:13.859Z,3.10
2022-08-31T08:20:14.010Z,2.90
2022-08-31T08:21:13.232Z,3.10
2022-08-31T08:22:13.244Z,3.10
2022-08-31T08:23:13.992Z,3.30
2022-08-31T08:24:14.049Z,3.40
2022-08-31T08:25:14.208Z,3.10
2022-08-31T08:26:21.115Z,2.70
2022-08-31T08:27:13.219Z,3.10
2022-08-31T08:28:37.696Z,3.20
2022-08-31T08:29:13.232Z,3.30
2022-08-31T08:30:13.411Z,3.30
2022-08-31T08:31:13.476Z,3.10
2022-08-31T08:32:17.252Z,3.20
2022-08-31T08:33:13.238Z,3.10
2022-08-31T08:34:13.268Z,3.00
2022-08-31T08:35:13.160Z,3.10
2022-08-31T08:36:13.371Z,3.00
2022-08-31T08:37:13.387Z,3.00
2022-08-31T08:38:13.508Z,3.10
2022-08-31T08:39:13.577Z,3.20
2022-08-31T08:40:13.654Z,3.10
2022-08-31T08:41:13.129Z,3.20
2022-08-31T08:42:13.387Z,3.00
2022-08-31T08:43:13.197Z,3.10
2022-08-31T08:44:17.958Z,3.00
2022-08-31T08:45:13.207Z,2.90
2022-08-31T08:46:31.732Z,3.00
2022-08-31T08:47:13.058Z,3.20
2022-08-31T08:48:13.337Z,3.10
2022-08-31T08:49:13.345Z,3.10
2022-08-31T08:50:13.303Z,3.40
2022-08-31T08:51:13.450Z,3.10
2022-08-31T08:52:13.438Z,3.10
2022-08-31T08:53:13.119Z,3.10
2022-08-31T08:54:13.578Z,3.00
2022-08-31T08:55:13.677Z,2.90
2022-08-31T08:56:32.277Z,3.10
2022-08-31T08:57:13.009Z,2.80
2022-08-31T08:58:13.495Z,2.70
2022-08-31T08:59:18.519Z,2.90
2022-08-31T09:00:12.982Z,2.80
2022-08-31T09:01:13.041Z,2.80
2022-08-31T09:02:13.064Z,3.10
2022-08-31T09:03:13.127Z,3.00
2022-08-31T09:04:13.027Z,3.20
2022-08-31T09:05:12.933Z,3.50
2022-08-31T09:06:12.926Z,3.20
2022-08-31T09:07:13.059Z,3.00
2022-08-31T09:08:12.977Z,3.00
2022-08-31T09:09:12.898Z,3.40
2022-08-31T09:10:12.904Z,3.30
2022-08-31T09:11:12.976Z,3.20
2022-08-31T09:12:15.001Z,3.10
2022-08-31T09:13:12.924Z,3.30
2022-08-31T09:14:12.888Z,3.20
2022-08-31T09:15:12.887Z,3.50
2022-08-31T09:16:12.877Z,3.30
2022-08-31T09:17:12.848Z,2.90
2022-08-31T09:18:12.935Z,3.20
2022-08-31T09:19:12.833Z,3.20
2022-08-31T09:20:12.833Z,2.80
2022-08-31T09:21:12.815Z,3.00
2022-08-31T09:22:12.823Z,2.80
2022-08-31T09:23:12.846Z,3.10
2022-08-31T09:24:12.806Z,2.90
2022-08-31T09:25:12.786Z,2.90
2022-08-31T09:26:12.788Z,3.00
2022-08-31T09:27:12.769Z,2.80
2022-08-31T09:28:12.788Z,3.00
2022-08-31T09:29:12.797Z,3.20
2022-08-31T09:30:12.758Z,3.20
2022-08-31T09:31:12.801Z,3.10
2022-08-31T09:32:12.747Z,3.00
2022-08-31T09:33:12.914Z,3.00
2022-08-31T09:34:13.043Z,2.80
2022-08-31T09:35:12.727Z,2.90
2022-08-31T09:36:12.760Z,3.50
2022-08-31T09:37:12.712Z,3.20
2022-08-31T09:38:12.827Z,3.50
2022-08-31T09:39:13.647Z,3.60
2022-08-31T09:40:12.720Z,3.40
2022-08-31T09:41:15.201Z,3.50
2022-08-31T09:42:12.706Z,3.60
2022-08-31T09:43:13.785Z,3.70
2022-08-31T09:44:12.679Z,3.50
2022-08-31T09:45:12.657Z,3.40
2022-08-31T09:46:12.742Z,3.40
2022-08-31T09:47:12.637Z,3.20
2022-08-31T09:48:12.650Z,3.30
2022-08-31T09:49:13.296Z,3.40
2022-08-31T09:50:13.668Z,3.60
2022-08-31T09:51:12.625Z,3.70
2022-08-31T09:52:13.368Z,3.50
2022-08-31T09:53:12.865Z,3.40
2022-08-31T09:54:12.596Z,3.60
2022-08-31T09:55:12.604Z,3.40
2022-08-31T09:56:12.587Z,3.50
2022-08-31T09:57:12.577Z,3.60
2022-08-31T09:58:12.578Z,3.20
2022-08-31T09:59:12.556Z,3.10
2022-08-31T10:00:12.556Z,3.50
2022-08-31T10:01:12.599Z,3.30
2022-08-31T10:02:12.536Z,3.40
2022-08-31T10:03:13.105Z,3.20
2022-08-31T10:04:12.527Z,3.40
2022-08-31T10:05:12.873Z,3.20
2022-08-31T10:06:12.526Z,3.40
2022-08-31T10:07:12.496Z,3.10
2022-08-31T10:08:16.383Z,3.40
2022-08-31T10:09:12.487Z,3.50
2022-08-31T10:10:28.410Z,3.20
2022-08-31T10:11:12.476Z,3.60
2022-08-31T10:12:13.154Z,3.30
2022-08-31T10:13:12.686Z,3.20
2022-08-31T10:14:12.456Z,3.40
2022-08-31T10:15:15.569Z,3.10
2022-08-31T10:16:12.515Z,3.10
2022-08-31T10:17:12.436Z,3.50
2022-08-31T10:18:12.444Z,3.30
2022-08-31T10:19:12.416Z,3.10
2022-08-31T10:20:12.417Z,3.40
2022-08-31T10:21:12.404Z,3.30
2022-08-31T10:22:12.569Z,3.40
2022-08-31T10:23:12.568Z,3.50
2022-08-31T10:24:12.414Z,3.30
2022-08-31T10:25:12.448Z,3.20
2022-08-31T10:26:12.396Z,3.20
2022-08-31T10:27:12.403Z,3.40
2022-08-31T10:28:12.486Z,3.30
2022-08-31T10:29:16.752Z,3.40
2022-08-31T10:30:12.681Z,3.40
2022-08-31T10:31:12.711Z,3.20
2022-08-31T10:32:13.318Z,3.20
2022-08-31T10:33:12.355Z,3.60
2022-08-31T10:34:12.437Z,3.30
2022-08-31T10:35:12.318Z,3.10
2022-08-31T10:36:12.326Z,3.20
2022-08-31T10:37:12.325Z,3.40
2022-08-31T10:38:14.775Z,3.10
2022-08-31T10:39:12.287Z,3.10
2022-08-31T10:40:12.340Z,3.30
2022-08-31T10:41:12.278Z,3.20
2022-08-31T10:42:12.304Z,3.00
2022-08-31T10:43:12.308Z,3.00
2022-08-31T10:44:12.266Z,3.10
2022-08-31T10:45:16.336Z,3.70
2022-08-31T10:46:12.287Z,3.20
2022-08-31T10:47:14.338Z,3.00
2022-08-31T10:48:12.285Z,3.00
2022-08-31T10:49:12.257Z,3.20
2022-08-31T10:50:12.256Z,3.30
2022-08-31T10:51:13.315Z,3.20
2022-08-31T10:52:12.209Z,2.90
2022-08-31T10:53:12.296Z,3.10
2022-08-31T10:54:12.366Z,3.10
2022-08-31T10:55:12.204Z,3.00
2022-08-31T10:56:12.244Z,3.20
2022-08-31T10:57:18.855Z,3.10
2022-08-31T10:58:12.176Z,3.20
2022-08-31T10:59:12.144Z,2.90
2022-08-31T11:00:12.144Z,3.00
2022-08-31T11:01:12.220Z,3.00
2022-08-31T11:02:12.134Z,2.90
2022-08-31T11:03:12.147Z,2.90
2022-08-31T11:04:12.140Z,3.20
2022-08-31T11:05:12.115Z,3.00
2022-08-31T11:06:12.116Z,3.20
2022-08-31T11:07:12.196Z,3.00
2022-08-31T11:08:12.231Z,2.90
2022-08-31T11:09:13.042Z,3.10
2022-08-31T11:10:12.087Z,2.90
2022-08-31T11:11:12.285Z,2.90
2022-08-31T11:12:12.066Z,2.90
2022-08-31T11:13:12.306Z,2.80
2022-08-31T11:14:12.098Z,3.10
2022-08-31T11:15:12.521Z,2.90
2022-08-31T11:16:12.101Z,3.10
2022-08-31T11:17:12.300Z,2.80
2022-08-31T11:18:12.063Z,3.00
2022-08-31T11:19:12.196Z,2.80
2022-08-31T11:20:12.017Z,2.80
2022-08-31T11:21:12.256Z,2.80
2022-08-31T11:22:11.997Z,3.10
2022-08-31T11:23:12.078Z,2.70
2022-08-31T11:24:12.170Z,3.00
2022-08-31T11:25:12.827Z,2.90
2022-08-31T11:26:12.596Z,3.10
2022-08-31T11:27:12.036Z,3.30
2022-08-31T11:28:11.967Z,3.00
2022-08-31T11:29:12.008Z,3.00
2022-08-31T11:30:12.007Z,3.10
2022-08-31T11:31:12.069Z,2.90
2022-08-31T11:32:11.951Z,3.30
2022-08-31T11:33:11.951Z,3.10
2022-08-31T11:34:16.356Z,2.90
2022-08-31T11:35:12.045Z,3.10
2022-08-31T11:36:11.914Z,3.20
2022-08-31T11:37:12.767Z,3.00
2022-08-31T11:38:12.016Z,3.40
2022-08-31T11:39:12.671Z,2.90
2022-08-31T11:40:12.139Z,3.10
2022-08-31T11:41:12.377Z,3.10
2022-08-31T11:42:12.813Z,3.10
2022-08-31T11:43:12.133Z,3.00
2022-08-31T11:44:12.098Z,3.20
2022-08-31T11:45:14.182Z,2.90
2022-08-31T11:46:12.823Z,2.90
2022-08-31T11:47:11.926Z,3.10
2022-08-31T11:48:11.837Z,3.20
2022-08-31T11:49:11.939Z,3.10
2022-08-31T11:50:11.827Z,3.20
2022-08-31T11:51:11.927Z,3.20
2022-08-31T11:52:11.808Z,3.20
2022-08-31T11:53:12.025Z,3.10
2022-08-31T11:54:12.074Z,3.10
2022-08-31T11:55:12.098Z,3.10
2022-08-31T11:56:12.207Z,3.20
2022-08-31T11:57:11.772Z,3.40
2022-08-31T11:58:11.787Z,3.30
2022-08-31T11:59:11.777Z,3.20
2022-08-31T12:00:11.748Z,2.90
2022-08-31T12:01:11.741Z,3.00
2022-08-31T12:02:11.780Z,3.10
2022-08-31T12:03:12.558Z,3.00
2022-08-31T12:04:12.036Z,3.50
2022-08-31T12:05:11.767Z,3.00
2022-08-31T12:06:11.714Z,3.50
2022-08-31T12:07:11.700Z,3.30
2022-08-31T12:08:11.728Z,3.10
2022-08-31T12:09:11.718Z,3.10
2022-08-31T12:10:11.681Z,2.90
2022-08-31T12:11:11.678Z,3.00
2022-08-31T12:12:11.666Z,3.00
2022-08-31T12:13:11.845Z,3.20
2022-08-31T12:14:11.697Z,3.30
2022-08-31T12:15:11.710Z,3.00
2022-08-31T12:16:12.480Z,3.00
2022-08-31T12:17:11.647Z,3.00
2022-08-31T12:18:11.637Z,2.90
2022-08-31T12:19:11.628Z,2.90
2022-08-31T12:20:11.646Z,3.10
2022-08-31T12:21:11.618Z,2.80
2022-08-31T12:22:11.652Z,2.80
2022-08-31T12:23:11.702Z,2.90
2022-08-31T12:24:15.408Z,2.90
2022-08-31T12:25:11.681Z,2.70
2022-08-31T12:26:11.670Z,2.90
2022-08-31T12:27:11.682Z,2.80
2022-08-31T12:28:11.595Z,2.80
2022-08-31T12:29:11.819Z,2.80
2022-08-31T12:30:11.699Z,2.60
2022-08-31T12:31:11.780Z,2.90
2022-08-31T12:32:11.629Z,2.80
2022-08-31T12:33:11.748Z,2.80
2022-08-31T12:34:11.769Z,2.90
2022-08-31T12:35:11.673Z,2.70
2022-08-31T12:36:13.103Z,2.70
2022-08-31T12:37:11.572Z,2.70
2022-08-31T12:38:11.570Z,2.60
2022-08-31T12:39:11.537Z,2.70
2022-08-31T12:40:12.856Z,2.80
2022-08-31T12:41:11.518Z,2.80
2022-08-31T12:42:11.740Z,2.90
2022-08-31T12:43:11.924Z,3.20
2022-08-31T12:44:14.180Z,2.80
2022-08-31T12:45:11.660Z,2.60
2022-08-31T12:46:11.534Z,2.70
2022-08-31T12:47:11.621Z,2.80
2022-08-31T12:48:11.486Z,2.90
2022-08-31T12:49:11.450Z,2.40
2022-08-31T12:50:11.540Z,2.80
2022-08-31T12:51:11.507Z,3.00
2022-08-31T12:52:11.609Z,2.90
2022-08-31T12:53:11.666Z,2.70
2022-08-31T12:54:11.480Z,2.50
2022-08-31T12:55:11.789Z,2.90
2022-08-31T12:56:11.419Z,2.70
2022-08-31T12:57:11.422Z,2.80
2022-08-31T12:58:11.701Z,2.80
2022-08-31T12:59:11.609Z,2.70
2022-08-31T13:00:13.038Z,2.60
2022-08-31T13:01:11.592Z,2.60
2022-08-31T13:02:11.631Z,2.90
2022-08-31T13:03:11.384Z,2.70
2022-08-31T13:04:11.548Z,3.00
2022-08-31T13:05:11.650Z,2.30
2022-08-31T13:06:11.350Z,2.60
2022-08-31T13:07:12.242Z,2.40
2022-08-31T13:08:11.785Z,2.50
2022-08-31T13:09:11.781Z,2.50
2022-08-31T13:10:11.379Z,2.50
2022-08-31T13:11:11.488Z,2.60
2022-08-31T13:12:11.903Z,2.50
2022-08-31T13:13:11.338Z,2.60
2022-08-31T13:14:11.610Z,2.50
2022-08-31T13:15:13.580Z,2.60
2022-08-31T13:16:11.281Z,2.50
2022-08-31T13:17:11.603Z,2.50
2022-08-31T13:18:11.282Z,2.70